Time;durP1;ratioP1;P1;durP2;ratioP2;P2;SDS_P1;SDS_P2;PMS_P1;PMS_P2;Temp;Humidity;BMP_temperature;BMP_pressure;BME280_temperature;BME280_humidity;BME280_pressure;Samples;Min_cycle;Max_cycle;Signal;HPM_P1;HPM_P2
2023/01/20 00:08:34;;;;;;;0.73;0.40;;;;;;;;;;21012348;28;20080;-61
2023/01/20 00:18:36;;;;;;;1.15;0.32;;;;;;;;;;21011392;28;20093;-61
2023/01/20 00:28:39;;;;;;;1.70;0.50;;;;;;;;;;21010077;28;20637;-65
2023/01/20 00:38:41;;;;;;;1.88;0.43;;;;;;;;;;21008754;28;20052;-63
2023/01/20 00:48:43;;;;;;;3.78;1.60;;;;;;;;;;21009895;28;20049;-63
2023/01/20 00:58:45;;;;;;;1.52;0.52;;;;;;;;;;21007901;28;20404;-62
2023/01/20 01:08:47;;;;;;;3.28;0.60;;;;;;;;;;21006496;28;20053;-66
2023/01/20 01:18:49;;;;;;;1.27;0.40;;;;;;;;;;21005514;28;20147;-67
2023/01/20 01:28:52;;;;;;;0.40;0.20;;;;;;;;;;21005576;28;20136;-66
2023/01/20 01:38:54;;;;;;;0.75;0.30;;;;;;;;;;21004488;28;20152;-66
2023/01/20 01:48:56;;;;;;;1.98;0.30;;;;;;;;;;21003634;28;20527;-67
2023/01/20 01:59:00;;;;;;;1.33;0.30;;;;;;;;;;21003492;28;20041;-65
2023/01/20 02:09:04;;;;;;;2.08;0.20;;;;;;;;;;21002246;28;20106;-64
2023/01/20 02:19:41;;;;;;;0.50;0.15;;;;;;;;;;21000222;28;20052;-63
2023/01/20 02:29:44;;;;;;;1.60;0.82;;;;;;;;;;20909163;28;20099;-64
2023/01/20 02:39:58;;;;;;;2.42;0.30;;;;;;;;;;20907990;28;20166;-66
2023/01/20 02:50:00;;;;;;;2.53;0.25;;;;;;;;;;20907222;28;20053;-65
2023/01/20 03:00:12;;;;;;;0.77;0.30;;;;;;;;;;20954542;28;20477;-62
2023/01/20 03:10:16;;;;;;;0.70;0.30;;;;;;;;;;20998109;28;20057;-63
2023/01/20 03:20:20;;;;;;;0.45;0.20;;;;;;;;;;20997750;28;20424;-64
2023/01/20 03:30:24;;;;;;;0.40;0.10;;;;;;;;;;20996526;28;20131;-63
2023/01/20 03:40:35;;;;;;;0.70;0.30;;;;;;;;;;20996335;28;20051;-62
2023/01/20 03:50:49;;;;;;;0.85;0.30;;;;;;;;;;20996080;28;20052;-62
2023/01/20 04:00:56;;;;;;;0.30;0.10;;;;;;;;;;20996446;28;20068;-62
2023/01/20 04:11:03;;;;;;;0.40;0.20;;;;;;;;;;20995455;28;20135;-61
2023/01/20 04:21:06;;;;;;;0.22;0.10;;;;;;;;;;20995001;28;20476;-63
2023/01/20 04:31:10;;;;;;;0.30;0.15;;;;;;;;;;20995346;28;20185;-63
2023/01/20 04:41:13;;;;;;;0.45;0.10;;;;;;;;;;21014348;28;20079;-67
2023/01/20 04:51:16;;;;;;;0.63;0.17;;;;;;;;;;21018989;28;20048;-66
2023/01/20 05:01:18;;;;;;;0.70;0.10;;;;;;;;;;21008076;28;20049;-62
2023/01/20 05:11:21;;;;;;;0.20;0.17;;;;;;;;;;21005938;28;20131;-63
2023/01/20 05:21:23;;;;;;;1.20;0.30;;;;;;;;;;21005775;28;20044;-62
2023/01/20 05:31:26;;;;;;;1.80;0.17;;;;;;;;;;21005477;28;20049;-62
2023/01/20 05:41:28;;;;;;;0.60;0.20;;;;;;;;;;21004528;28;20056;-64
2023/01/20 05:51:31;;;;;;;0.43;0.20;;;;;;;;;;21003770;28;20390;-63
2023/01/20 06:01:32;;;;;;;0.38;0.10;;;;;;;;;;21003657;28;20049;-64
2023/01/20 06:11:35;;;;;;;0.35;0.10;;;;;;;;;;21002958;28;20091;-64
2023/01/20 06:21:37;;;;;;;1.33;0.20;;;;;;;;;;21002738;28;20048;-63
2023/01/20 06:31:40;;;;;;;0.38;0.20;;;;;;;;;;21000332;28;20048;-64
2023/01/20 06:41:42;;;;;;;1.08;0.20;;;;;;;;;;20999850;28;20416;-62
2023/01/20 06:51:46;;;;;;;0.05;0.00;;;;;;;;;;20999501;28;20056;-64
2023/01/20 07:02:03;;;;;;;1.02;0.40;;;;;;;;;;20743955;28;20068;-67
2023/01/20 07:12:05;;;;;;;1.55;0.22;;;;;;;;;;20743929;28;20046;-61
2023/01/20 07:22:07;;;;;;;2.08;0.75;;;;;;;;;;20741534;28;20045;-66
2023/01/20 07:32:09;;;;;;;5.60;0.73;;;;;;;;;;20786979;28;20139;-62
2023/01/20 07:42:12;;;;;;;1.13;0.40;;;;;;;;;;20997233;28;20055;-62
2023/01/20 07:52:13;;;;;;;4.55;0.80;;;;;;;;;;20997042;28;20537;-63
2023/01/20 08:02:15;;;;;;;1.98;0.60;;;;;;;;;;20996241;28;20055;-62
2023/01/20 08:12:17;;;;;;;3.13;1.70;;;;;;;;;;21001987;28;20071;-62
2023/01/20 08:22:19;;;;;;;2.13;1.00;;;;;;;;;;21011458;28;20052;-65
2023/01/20 08:32:21;;;;;;;3.10;1.42;;;;;;;;;;21013947;28;20049;-62
2023/01/20 08:42:23;;;;;;;7.38;2.70;;;;;;;;;;21013561;28;20102;-63
2023/01/20 08:52:26;;;;;;;4.75;2.20;;;;;;;;;;21010255;28;20040;-61
2023/01/20 09:02:28;;;;;;;6.22;3.45;;;;;;;;;;21009476;28;20052;-68
2023/01/20 09:12:30;;;;;;;13.02;6.80;;;;;;;;;;21007755;28;20055;-66
2023/01/20 09:22:32;;;;;;;6.70;1.98;;;;;;;;;;21007269;28;20114;-65
2023/01/20 09:32:35;;;;;;;5.28;3.03;;;;;;;;;;21007999;28;20087;-66
2023/01/20 09:53:19;;;;;;;5.57;1.83;;;;;;;;;;21003373;28;20416;-65
2023/01/20 10:03:35;;;;;;;7.18;1.92;;;;;;;;;;21002747;28;20056;-64
2023/01/20 10:13:46;;;;;;;6.18;1.80;;;;;;;;;;21001026;28;20044;-67
2023/01/20 10:23:48;;;;;;;7.47;2.05;;;;;;;;;;21000629;28;20056;-64
2023/01/20 10:33:52;;;;;;;5.95;1.33;;;;;;;;;;20996987;28;20507;-64
2023/01/20 10:43:55;;;;;;;3.20;1.13;;;;;;;;;;20996886;28;20083;-67
2023/01/20 10:54:21;;;;;;;4.15;1.05;;;;;;;;;;20998331;28;20044;-64
2023/01/20 11:04:28;;;;;;;3.75;0.77;;;;;;;;;;20997857;28;20052;-65
2023/01/20 11:14:30;;;;;;;3.97;0.98;;;;;;;;;;20997567;28;20045;-65
2023/01/20 11:24:35;;;;;;;3.30;0.73;;;;;;;;;;20996794;28;20048;-65
2023/01/20 11:34:47;;;;;;;3.45;0.70;;;;;;;;;;20995976;28;20044;-65
2023/01/20 11:44:51;;;;;;;2.88;0.77;;;;;;;;;;21002567;28;20100;-64
2023/01/20 11:55:06;;;;;;;1.52;0.60;;;;;;;;;;21024876;28;20119;-64
2023/01/20 12:05:22;;;;;;;1.13;0.55;;;;;;;;;;21025000;28;20080;-63
2023/01/20 12:15:25;;;;;;;2.25;0.90;;;;;;;;;;21022421;28;20131;-64
2023/01/20 12:25:29;;;;;;;1.17;0.40;;;;;;;;;;21020699;28;20056;-66
2023/01/20 12:35:36;;;;;;;1.33;0.43;;;;;;;;;;21021302;28;20044;-64
2023/01/20 12:45:50;;;;;;;0.68;0.38;;;;;;;;;;21021359;28;20083;-64
2023/01/20 12:55:54;;;;;;;0.20;0.15;;;;;;;;;;21015213;28;20123;-65
2023/01/20 13:06:00;;;;;;;1.48;0.68;;;;;;;;;;21007260;28;20500;-65
2023/01/20 13:16:16;;;;;;;1.85;0.93;;;;;;;;;;21006052;28;20516;-63
2023/01/20 13:26:18;;;;;;;1.90;0.32;;;;;;;;;;21004483;28;20088;-62
2023/01/20 13:36:22;;;;;;;0.82;0.30;;;;;;;;;;21003946;28;20056;-64
2023/01/20 13:46:37;;;;;;;3.00;0.60;;;;;;;;;;21004455;28;20443;-64
2023/01/20 13:56:39;;;;;;;0.70;0.22;;;;;;;;;;21002836;28;20057;-63
2023/01/20 14:06:48;;;;;;;4.53;1.85;;;;;;;;;;21000975;28;20437;-63
2023/01/20 14:16:50;;;;;;;0.90;0.40;;;;;;;;;;21001947;28;20467;-65
2023/01/20 14:27:05;;;;;;;2.92;1.40;;;;;;;;;;20998698;28;20131;-64
2023/01/20 14:37:23;;;;;;;1.95;0.52;;;;;;;;;;20998807;28;20048;-64
2023/01/20 14:47:26;;;;;;;0.60;0.28;;;;;;;;;;20998753;28;20053;-64
2023/01/20 14:57:28;;;;;;;2.97;1.30;;;;;;;;;;20998188;28;20044;-64
2023/01/20 15:07:30;;;;;;;2.20;1.00;;;;;;;;;;20998161;28;20053;-64
2023/01/20 15:17:32;;;;;;;1.27;0.50;;;;;;;;;;20996685;28;20166;-65
2023/01/20 15:27:35;;;;;;;1.20;0.63;;;;;;;;;;20996146;28;20098;-64
2023/01/20 15:37:38;;;;;;;4.78;1.85;;;;;;;;;;20996340;28;20052;-64
2023/01/20 15:47:40;;;;;;;7.85;3.67;;;;;;;;;;20995415;28;20051;-64
2023/01/20 15:57:43;;;;;;;1.85;0.82;;;;;;;;;;20995907;28;20051;-64
2023/01/20 16:07:46;;;;;;;1.75;0.50;;;;;;;;;;20995178;28;20119;-65
2023/01/20 16:17:50;;;;;;;4.47;1.05;;;;;;;;;;20995017;28;20702;-64
2023/01/20 16:27:52;;;;;;;2.17;1.00;;;;;;;;;;20995404;28;20048;-65
2023/01/20 16:37:54;;;;;;;6.13;2.88;;;;;;;;;;21006052;28;20060;-66
2023/01/20 16:47:56;;;;;;;9.77;3.60;;;;;;;;;;20964380;28;20071;-62
2023/01/20 16:57:58;;;;;;;11.07;3.90;;;;;;;;;;20949939;28;20076;-62
2023/01/20 17:08:00;;;;;;;1.75;0.70;;;;;;;;;;20992553;28;20083;-63
2023/01/20 17:18:02;;;;;;;3.10;0.60;;;;;;;;;;20983264;28;20081;-67
2023/01/20 17:28:04;;;;;;;3.20;1.10;;;;;;;;;;20995552;28;20044;-63
2023/01/20 17:38:06;;;;;;;4.22;1.40;;;;;;;;;;20954823;28;20443;-61
2023/01/20 17:48:08;;;;;;;2.67;1.38;;;;;;;;;;20937078;28;20052;-60
2023/01/20 17:58:10;;;;;;;6.07;2.58;;;;;;;;;;20989850;28;20492;-62
2023/01/20 18:08:12;;;;;;;3.05;1.27;;;;;;;;;;21000085;28;20147;-65
2023/01/20 18:18:14;;;;;;;6.65;2.38;;;;;;;;;;20998677;28;20095;-62
2023/01/20 18:28:16;;;;;;;1.52;0.60;;;;;;;;;;20994644;28;20107;-61
2023/01/20 18:38:18;;;;;;;8.77;2.03;;;;;;;;;;20989059;28;20056;-63
2023/01/20 18:48:21;;;;;;;4.88;2.58;;;;;;;;;;20995717;28;20055;-59
2023/01/20 18:58:23;;;;;;;5.20;1.38;;;;;;;;;;20996815;28;20048;-62
2023/01/20 19:08:25;;;;;;;3.60;1.25;;;;;;;;;;20946261;28;20045;-61
2023/01/20 19:18:27;;;;;;;3.78;1.05;;;;;;;;;;20968658;28;20541;-62
2023/01/20 19:28:30;;;;;;;5.05;2.28;;;;;;;;;;20986601;28;20051;-63
2023/01/20 19:38:32;;;;;;;6.75;3.70;;;;;;;;;;20978854;28;20420;-63
2023/01/20 19:48:34;;;;;;;5.75;2.38;;;;;;;;;;20974948;28;20070;-61
2023/01/20 19:58:36;;;;;;;2.45;1.27;;;;;;;;;;20995935;28;20053;-61
2023/01/20 20:08:38;;;;;;;2.83;1.50;;;;;;;;;;21003931;28;20470;-62
2023/01/20 20:18:40;;;;;;;3.35;1.90;;;;;;;;;;21010520;28;20117;-62
2023/01/20 20:28:43;;;;;;;4.38;2.75;;;;;;;;;;21010682;28;20052;-62
2023/01/20 20:38:49;;;;;;;10.05;4.28;;;;;;;;;;21009317;28;20051;-63
2023/01/20 20:48:54;;;;;;;6.53;3.92;;;;;;;;;;21007712;28;20053;-62
2023/01/20 20:58:56;;;;;;;8.45;2.88;;;;;;;;;;21007839;28;20157;-62
2023/01/20 21:08:59;;;;;;;4.85;2.83;;;;;;;;;;21006193;28;20052;-65
2023/01/20 21:19:02;;;;;;;6.85;3.08;;;;;;;;;;21005511;28;20090;-65
2023/01/20 21:29:04;;;;;;;5.93;2.90;;;;;;;;;;21006646;28;20055;-64
2023/01/20 21:39:05;;;;;;;9.13;4.13;;;;;;;;;;21005512;28;20048;-64
2023/01/20 21:59:29;;;;;;;6.82;3.30;;;;;;;;;;21004564;28;20057;-65
2023/01/20 22:09:30;;;;;;;10.43;3.67;;;;;;;;;;21003265;28;20048;-62
2023/01/20 22:19:33;;;;;;;5.38;2.88;;;;;;;;;;21002394;28;20409;-61
2023/01/20 22:29:35;;;;;;;7.93;3.58;;;;;;;;;;21000512;28;20381;-63
2023/01/20 22:39:37;;;;;;;10.82;5.47;;;;;;;;;;21000639;28;20048;-62
2023/01/20 22:49:39;;;;;;;11.40;6.43;;;;;;;;;;21000210;28;20044;-62
2023/01/20 22:59:41;;;;;;;8.85;4.50;;;;;;;;;;20998512;28;20051;-62
2023/01/20 23:09:43;;;;;;;5.82;2.97;;;;;;;;;;20997898;28;20100;-62
2023/01/20 23:19:45;;;;;;;3.90;2.03;;;;;;;;;;20997768;28;20056;-62
2023/01/20 23:29:47;;;;;;;5.05;2.25;;;;;;;;;;20996503;28;20044;-62
2023/01/20 23:39:51;;;;;;;5.60;2.67;;;;;;;;;;20995019;28;20053;-61
2023/01/20 23:49:53;;;;;;;5.88;2.75;;;;;;;;;;20996558;28;20125;-63
2023/01/20 23:59:55;;;;;;;6.50;2.75;;;;;;;;;;20996130;28;20095;-62
